Time;durP1;ratioP1;P1;durP2;ratioP2;P2;SDS_P1;SDS_P2;PMS_P1;PMS_P2;Temp;Humidity;BMP_temperature;BMP_pressure;BME280_temperature;BME280_humidity;BME280_pressure;Samples;Min_cycle;Max_cycle;Signal;HPM_P1;HPM_P2
2023/03/29 00:00:58;;;;;;;6.90;3.30;;;4.50;99.90;;;;;;4974171;28;20204;-67
2023/03/29 00:03:24;;;;;;;3.80;2.10;;;4.60;99.90;;;;;;4976380;28;20240;-68
2023/03/29 00:05:56;;;;;;;7.17;3.87;;;4.60;99.90;;;;;;4976404;28;20209;-69
2023/03/29 00:08:22;;;;;;;4.63;2.60;;;4.60;99.90;;;;;;4974146;28;20196;-68
2023/03/29 00:10:48;;;;;;;3.67;2.33;;;4.70;99.90;;;;;;4976051;28;20213;-69
2023/03/29 00:13:14;;;;;;;9.03;2.90;;;4.70;99.90;;;;;;4976293;28;20193;-68
2023/03/29 00:15:40;;;;;;;7.50;3.10;;;4.70;99.90;;;;;;4979424;28;20204;-68
2023/03/29 00:18:06;;;;;;;6.60;2.70;;;4.80;99.90;;;;;;4978840;28;20752;-69
2023/03/29 00:20:31;;;;;;;7.50;2.63;;;4.70;99.90;;;;;;4979817;28;20355;-68
2023/03/29 00:22:57;;;;;;;5.17;2.53;;;4.70;99.90;;;;;;4980057;28;20250;-69
2023/03/29 00:25:22;;;;;;;3.57;2.23;;;4.70;99.90;;;;;;4979843;28;20327;-70
2023/03/29 00:27:48;;;;;;;6.43;3.13;;;4.70;99.90;;;;;;4980396;28;20568;-68
2023/03/29 00:30:14;;;;;;;8.27;2.60;;;4.70;99.90;;;;;;4979543;28;20219;-68
2023/03/29 00:32:39;;;;;;;8.80;3.10;;;4.70;99.90;;;;;;4996659;28;20207;-68
2023/03/29 00:35:06;;;;;;;6.73;2.63;;;4.70;99.90;;;;;;4998332;28;20232;-68
2023/03/29 00:37:32;;;;;;;5.43;2.37;;;4.70;99.90;;;;;;4999003;28;20286;-68
2023/03/29 00:39:57;;;;;;;9.83;2.97;;;4.70;99.90;;;;;;4998455;28;20470;-69
2023/03/29 00:42:24;;;;;;;8.40;2.50;;;4.70;99.90;;;;;;4992002;28;20216;-67
2023/03/29 00:44:53;;;;;;;3.63;2.43;;;4.70;99.90;;;;;;4987477;28;20216;-68
2023/03/29 00:47:41;;;;;;;3.20;2.23;;;4.70;99.90;;;;;;4981156;28;20208;-68
2023/03/29 00:50:21;;;;;;;11.83;3.30;;;4.70;99.90;;;;;;4977283;28;20236;-67
2023/03/29 00:53:02;;;;;;;9.50;2.83;;;4.70;99.90;;;;;;4980310;28;20235;-66
2023/03/29 00:55:35;;;;;;;6.17;2.83;;;4.70;99.90;;;;;;4998259;28;20199;-68
2023/03/29 00:58:03;;;;;;;5.57;3.17;;;4.70;99.90;;;;;;4997287;28;20214;-67
2023/03/29 01:00:43;;;;;;;5.33;2.50;;;4.60;99.90;;;;;;4994886;28;20227;-67
2023/03/29 01:03:13;;;;;;;5.97;2.57;;;4.60;99.90;;;;;;4998296;28;20204;-68
2023/03/29 01:05:43;;;;;;;5.80;2.37;;;4.60;99.90;;;;;;4998063;28;20204;-67
2023/03/29 01:08:16;;;;;;;4.30;2.40;;;4.70;99.90;;;;;;4979425;28;20622;-68
2023/03/29 01:10:47;;;;;;;6.90;2.63;;;4.70;99.90;;;;;;4978570;28;20231;-68
2023/03/29 01:13:19;;;;;;;7.87;2.67;;;4.70;99.90;;;;;;4978940;28;20204;-67
2023/03/29 01:15:46;;;;;;;4.40;2.37;;;4.70;99.90;;;;;;4978405;28;20236;-67
2023/03/29 01:18:12;;;;;;;6.67;2.57;;;4.60;99.90;;;;;;4978936;28;20219;-67
2023/03/29 01:21:06;;;;;;;3.27;2.37;;;4.60;99.90;;;;;;4979764;28;20208;-67
2023/03/29 01:23:44;;;;;;;3.53;2.37;;;4.60;99.90;;;;;;4978977;28;20200;-68
2023/03/29 01:26:46;;;;;;;4.60;2.07;;;4.50;99.90;;;;;;4977766;28;20212;-67
2023/03/29 01:29:19;;;;;;;8.23;2.50;;;4.50;99.90;;;;;;4978517;28;20219;-66
2023/03/29 01:31:50;;;;;;;4.87;2.60;;;4.60;99.90;;;;;;4977924;28;20268;-67
2023/03/29 01:34:33;;;;;;;4.47;2.67;;;4.50;99.90;;;;;;4996363;28;20232;-66
2023/03/29 01:37:15;;;;;;;7.73;2.40;;;4.60;99.90;;;;;;4997146;28;20254;-68
2023/03/29 01:39:41;;;;;;;7.07;2.00;;;4.60;99.90;;;;;;4996885;28;20207;-68
2023/03/29 01:42:15;;;;;;;3.23;1.90;;;4.50;99.90;;;;;;4997925;28;20250;-68
2023/03/29 01:44:51;;;;;;;2.37;2.17;;;4.50;99.90;;;;;;4997354;28;20559;-68
2023/03/29 01:47:46;;;;;;;7.37;2.40;;;4.50;99.90;;;;;;4997609;28;20215;-68
2023/03/29 01:50:20;;;;;;;4.43;2.47;;;4.50;99.90;;;;;;4997600;28;20208;-68
2023/03/29 01:52:53;;;;;;;6.53;2.23;;;4.40;99.90;;;;;;4988628;28;20458;-68
2023/03/29 01:55:23;;;;;;;4.53;2.80;;;4.40;99.90;;;;;;4988819;28;20232;-68
2023/03/29 01:57:52;;;;;;;4.17;2.00;;;4.40;99.90;;;;;;4987330;28;20299;-68
2023/03/29 02:00:23;;;;;;;5.50;2.07;;;4.40;99.90;;;;;;4987616;28;20203;-68
2023/03/29 02:02:52;;;;;;;5.93;2.30;;;4.40;99.90;;;;;;4986981;28;20205;-67
2023/03/29 02:05:21;;;;;;;5.27;2.60;;;4.40;99.90;;;;;;4986955;28;20201;-67
2023/03/29 02:07:49;;;;;;;3.47;1.87;;;4.40;99.90;;;;;;4987250;28;20199;-67
2023/03/29 02:10:16;;;;;;;4.60;2.17;;;4.40;99.90;;;;;;4969452;28;20247;-67
2023/03/29 02:12:41;;;;;;;2.20;1.97;;;4.40;99.90;;;;;;4987188;28;20576;-67
2023/03/29 02:15:13;;;;;;;4.93;2.20;;;4.40;99.90;;;;;;4987279;28;20663;-67
2023/03/29 02:17:39;;;;;;;5.27;3.03;;;4.30;99.90;;;;;;4987196;28;20204;-67
2023/03/29 02:20:13;;;;;;;8.70;2.10;;;4.30;99.90;;;;;;4986551;28;20678;-68
2023/03/29 02:23:07;;;;;;;5.57;2.10;;;4.30;99.90;;;;;;4986925;28;20197;-67
2023/03/29 02:25:32;;;;;;;4.13;2.20;;;4.30;99.90;;;;;;4986926;28;20192;-68
2023/03/29 02:27:59;;;;;;;2.60;2.17;;;4.20;99.90;;;;;;4987238;28;20274;-67
2023/03/29 02:30:35;;;;;;;5.20;2.20;;;4.20;99.90;;;;;;4984959;28;20209;-67
2023/03/29 02:33:13;;;;;;;5.47;2.80;;;4.10;99.90;;;;;;4986818;28;20708;-68
2023/03/29 02:35:48;;;;;;;4.20;2.40;;;4.10;99.90;;;;;;4991135;28;20204;-68
2023/03/29 02:38:16;;;;;;;9.90;2.57;;;4.10;99.90;;;;;;4993189;28;20217;-68
2023/03/29 02:40:42;;;;;;;3.77;2.00;;;4.10;99.90;;;;;;4996130;28;20204;-67
2023/03/29 02:43:10;;;;;;;4.17;2.40;;;4.00;99.90;;;;;;4996743;28;20204;-68
2023/03/29 02:45:36;;;;;;;4.20;1.90;;;4.00;99.90;;;;;;4995918;28;20192;-67
2023/03/29 02:48:09;;;;;;;4.73;2.13;;;4.00;99.90;;;;;;4995612;28;20701;-67
2023/03/29 02:50:38;;;;;;;7.90;2.17;;;3.90;99.90;;;;;;4996007;28;20234;-67
2023/03/29 02:53:11;;;;;;;7.93;2.53;;;3.90;99.90;;;;;;4994568;28;20273;-67
2023/03/29 02:55:37;;;;;;;5.70;2.40;;;3.90;99.90;;;;;;4995975;28;20206;-68
2023/03/29 02:58:07;;;;;;;8.40;2.83;;;3.90;99.90;;;;;;4994381;28;20587;-69
2023/03/29 03:00:39;;;;;;;7.20;2.90;;;3.90;99.90;;;;;;4994172;28;20207;-68
2023/03/29 03:03:06;;;;;;;9.17;2.37;;;3.90;99.90;;;;;;4996584;28;20203;-68
2023/03/29 03:05:33;;;;;;;5.17;2.37;;;3.80;99.90;;;;;;4996256;28;20310;-68
2023/03/29 03:07:58;;;;;;;5.30;2.47;;;3.70;99.90;;;;;;4996426;28;20219;-66
2023/03/29 03:10:24;;;;;;;9.40;2.57;;;3.70;99.90;;;;;;4996248;28;20461;-67
2023/03/29 03:12:50;;;;;;;7.73;3.10;;;3.60;99.90;;;;;;4995330;28;20203;-66
2023/03/29 03:15:15;;;;;;;6.77;2.97;;;3.60;99.90;;;;;;4995926;28;20196;-66
2023/03/29 03:17:41;;;;;;;3.83;2.13;;;3.60;99.90;;;;;;4995416;28;20207;-67
2023/03/29 03:20:11;;;;;;;4.10;2.93;;;3.60;99.90;;;;;;4995886;28;20541;-68
2023/03/29 03:22:41;;;;;;;3.23;2.30;;;3.50;99.90;;;;;;4995824;28;20241;-68
2023/03/29 03:25:10;;;;;;;4.60;2.17;;;3.60;99.90;;;;;;4996418;28;20196;-67
2023/03/29 03:27:37;;;;;;;3.57;1.83;;;3.60;99.90;;;;;;4996313;28;20204;-66
2023/03/29 03:30:06;;;;;;;7.97;2.27;;;3.60;99.90;;;;;;4995480;28;20792;-67
2023/03/29 03:32:33;;;;;;;5.77;2.27;;;3.60;99.90;;;;;;4976527;28;20197;-68
2023/03/29 03:34:59;;;;;;;2.40;1.93;;;3.50;99.90;;;;;;4976729;28;20216;-68
2023/03/29 03:37:26;;;;;;;6.63;2.93;;;3.50;99.90;;;;;;4977019;28;20551;-68
2023/03/29 03:39:52;;;;;;;9.13;2.53;;;3.50;99.90;;;;;;4976782;28;20271;-69
2023/03/29 03:42:18;;;;;;;3.80;1.80;;;3.50;99.90;;;;;;4975039;28;20208;-68
2023/03/29 03:44:43;;;;;;;5.10;2.73;;;3.50;99.90;;;;;;4975956;28;20667;-68
2023/03/29 03:47:09;;;;;;;4.67;2.37;;;3.50;99.90;;;;;;4976640;28;20200;-67
2023/03/29 03:49:35;;;;;;;6.30;2.30;;;3.50;99.90;;;;;;4978115;28;20677;-68
2023/03/29 03:52:01;;;;;;;3.10;2.20;;;3.50;99.90;;;;;;4980336;28;20220;-67
2023/03/29 03:54:26;;;;;;;11.03;2.73;;;3.50;99.90;;;;;;4980325;28;20266;-68
2023/03/29 03:56:52;;;;;;;4.47;2.77;;;3.50;99.90;;;;;;4978676;28;20241;-68
2023/03/29 03:59:18;;;;;;;7.27;2.53;;;3.50;99.90;;;;;;4980181;28;20836;-67
2023/03/29 04:01:45;;;;;;;6.53;2.93;;;3.50;99.90;;;;;;4990825;28;20231;-67
2023/03/29 04:04:11;;;;;;;4.10;2.40;;;3.50;99.90;;;;;;4999404;28;20636;-68
2023/03/29 04:06:37;;;;;;;4.77;2.83;;;3.50;99.90;;;;;;4998125;28;20203;-68
2023/03/29 04:09:04;;;;;;;5.10;2.77;;;3.50;99.90;;;;;;4996989;28;20686;-68
2023/03/29 04:11:29;;;;;;;6.77;2.73;;;3.40;99.90;;;;;;4999252;28;20220;-68
2023/03/29 04:13:56;;;;;;;4.93;3.63;;;3.40;99.90;;;;;;4999167;28;20200;-68
2023/03/29 04:16:22;;;;;;;3.47;2.67;;;3.40;99.90;;;;;;4999340;28;20205;-68
2023/03/29 04:18:48;;;;;;;7.90;3.63;;;3.40;99.90;;;;;;4999103;28;20215;-67
2023/03/29 04:21:13;;;;;;;2.37;1.90;;;3.30;99.90;;;;;;4997614;28;20204;-68
2023/03/29 04:23:39;;;;;;;8.73;3.23;;;3.30;99.90;;;;;;4997203;28;20638;-66
2023/03/29 04:26:05;;;;;;;3.87;2.27;;;3.30;99.90;;;;;;4999083;28;20287;-69
2023/03/29 04:28:31;;;;;;;5.97;3.47;;;3.30;99.90;;;;;;4999125;28;20733;-68
2023/03/29 04:30:56;;;;;;;5.07;2.47;;;3.30;99.90;;;;;;4999040;28;20885;-67
2023/03/29 04:33:22;;;;;;;3.57;2.73;;;3.30;99.90;;;;;;4999585;28;20208;-67
2023/03/29 04:35:47;;;;;;;5.03;2.73;;;3.30;99.90;;;;;;4996558;28;20219;-66
2023/03/29 04:38:12;;;;;;;4.07;2.90;;;3.30;99.90;;;;;;4998771;28;20204;-66
2023/03/29 04:40:38;;;;;;;5.60;2.63;;;3.20;99.90;;;;;;4998689;28;20574;-67
2023/03/29 04:43:03;;;;;;;5.83;2.80;;;3.30;99.90;;;;;;4998648;28;20772;-67
2023/03/29 04:45:30;;;;;;;6.37;2.63;;;3.30;99.90;;;;;;4998506;28;20204;-67
2023/03/29 04:47:58;;;;;;;4.63;2.60;;;3.30;99.90;;;;;;4998326;28;20323;-67
2023/03/29 04:50:24;;;;;;;7.43;3.10;;;3.30;99.90;;;;;;4996437;28;20215;-66
2023/03/29 04:52:49;;;;;;;3.97;2.70;;;3.30;99.90;;;;;;4998431;28;20215;-67
2023/03/29 04:55:15;;;;;;;4.73;3.23;;;3.30;99.90;;;;;;4998360;28;20764;-67
2023/03/29 04:57:43;;;;;;;9.97;3.53;;;3.30;99.90;;;;;;4998194;28;20203;-67
2023/03/29 05:00:14;;;;;;;2.90;2.63;;;3.30;99.90;;;;;;4996218;28;20279;-67
2023/03/29 05:02:43;;;;;;;5.93;2.47;;;3.40;99.90;;;;;;4997380;28;20204;-67
2023/03/29 05:05:09;;;;;;;8.57;3.77;;;3.40;99.90;;;;;;4998316;28;20226;-67
2023/03/29 05:07:35;;;;;;;5.97;3.23;;;3.40;99.90;;;;;;4998086;28;20235;-67
2023/03/29 05:10:00;;;;;;;7.57;3.17;;;3.40;99.90;;;;;;4997017;28;20629;-69
2023/03/29 05:12:26;;;;;;;6.23;2.83;;;3.40;99.90;;;;;;4998203;28;20677;-69
2023/03/29 05:14:52;;;;;;;7.13;3.27;;;3.50;99.90;;;;;;4998162;28;20222;-68
2023/03/29 05:17:17;;;;;;;7.47;3.53;;;3.40;99.90;;;;;;4998253;28;20642;-68
2023/03/29 05:19:43;;;;;;;4.60;3.50;;;3.50;99.90;;;;;;4997701;28;20202;-67
2023/03/29 05:22:08;;;;;;;4.40;2.53;;;3.50;99.90;;;;;;4995693;28;20208;-68
2023/03/29 05:24:34;;;;;;;5.37;2.90;;;3.60;99.90;;;;;;4997956;28;20231;-67
2023/03/29 05:27:00;;;;;;;6.23;3.20;;;3.60;99.90;;;;;;4997648;28;21117;-68
2023/03/29 05:29:25;;;;;;;8.40;3.13;;;3.60;99.90;;;;;;4997999;28;20231;-67
2023/03/29 05:31:51;;;;;;;6.37;3.00;;;3.60;99.90;;;;;;4997661;28;20243;-68
2023/03/29 05:34:17;;;;;;;10.87;3.93;;;3.70;99.90;;;;;;4994621;28;20351;-68
2023/03/29 05:36:44;;;;;;;6.80;3.00;;;3.70;99.90;;;;;;4997619;28;20196;-68
2023/03/29 05:39:10;;;;;;;11.57;3.03;;;3.80;99.90;;;;;;4997437;28;20291;-68
2023/03/29 05:41:35;;;;;;;6.70;3.10;;;3.80;99.90;;;;;;4997636;28;20287;-67
2023/03/29 05:44:01;;;;;;;6.50;4.20;;;3.80;99.90;;;;;;4988397;28;20207;-67
2023/03/29 05:46:27;;;;;;;6.77;3.00;;;3.90;99.90;;;;;;4976299;28;20620;-68
2023/03/29 05:48:52;;;;;;;4.13;3.13;;;3.90;99.90;;;;;;4978085;28;20710;-70
2023/03/29 05:51:22;;;;;;;6.07;3.30;;;3.90;99.90;;;;;;4978198;28;20212;-67
2023/03/29 05:53:48;;;;;;;5.30;3.10;;;4.00;99.90;;;;;;4978232;28;20221;-68
2023/03/29 05:56:15;;;;;;;4.07;3.30;;;4.00;99.90;;;;;;4976569;28;20200;-68
2023/03/29 05:58:41;;;;;;;8.47;4.07;;;4.10;99.90;;;;;;4978153;28;20549;-68
2023/03/29 06:01:12;;;;;;;3.70;3.20;;;4.10;99.90;;;;;;4978324;28;20231;-69
2023/03/29 06:03:37;;;;;;;6.00;3.57;;;4.20;99.90;;;;;;4991601;28;20689;-68
2023/03/29 06:06:03;;;;;;;4.20;2.97;;;4.20;99.90;;;;;;4995007;28;20204;-69
2023/03/29 06:08:29;;;;;;;5.23;3.60;;;4.30;99.90;;;;;;4997145;28;20318;-68
2023/03/29 06:11:04;;;;;;;7.47;4.83;;;4.40;99.90;;;;;;4997217;28;20686;-68
2023/03/29 06:13:32;;;;;;;8.70;3.13;;;4.50;99.90;;;;;;4996674;28;20199;-68
2023/03/29 06:15:58;;;;;;;6.90;3.40;;;4.50;99.90;;;;;;4996990;28;20986;-68
2023/03/29 06:18:23;;;;;;;5.67;3.47;;;4.60;99.90;;;;;;4997490;28;20192;-68
2023/03/29 06:20:50;;;;;;;6.80;3.73;;;4.60;99.90;;;;;;4996821;28;20207;-68
2023/03/29 06:23:17;;;;;;;6.80;3.50;;;4.60;99.90;;;;;;4996606;28;20200;-69
2023/03/29 06:25:44;;;;;;;8.00;3.60;;;4.70;99.90;;;;;;4996267;28;20306;-68
2023/03/29 06:28:11;;;;;;;8.23;3.43;;;4.80;99.90;;;;;;4995183;28;20292;-69
2023/03/29 06:30:37;;;;;;;7.77;3.47;;;4.90;99.90;;;;;;4995908;28;20306;-68
2023/03/29 06:33:05;;;;;;;3.57;3.27;;;5.00;99.90;;;;;;4996460;28;20200;-68
2023/03/29 06:35:30;;;;;;;5.70;2.83;;;4.90;99.90;;;;;;4996576;28;20250;-69
2023/03/29 06:37:56;;;;;;;5.77;3.13;;;4.90;99.90;;;;;;4994769;28;20200;-68
2023/03/29 06:40:21;;;;;;;4.60;4.00;;;5.00;99.90;;;;;;4996285;28;20286;-67
2023/03/29 06:42:47;;;;;;;3.17;2.77;;;5.00;99.90;;;;;;4996562;28;20653;-68
2023/03/29 06:45:13;;;;;;;4.30;3.90;;;5.00;99.90;;;;;;4978118;28;20259;-69
2023/03/29 06:47:39;;;;;;;6.23;3.27;;;5.00;99.90;;;;;;4996512;28;20196;-69
2023/03/29 06:50:05;;;;;;;10.17;3.80;;;5.20;99.90;;;;;;4996441;28;20212;-66
2023/03/29 06:52:31;;;;;;;4.87;3.37;;;5.30;99.90;;;;;;4994641;28;20204;-67
2023/03/29 06:54:56;;;;;;;7.87;3.10;;;5.30;99.90;;;;;;4996444;28;20211;-67
2023/03/29 06:57:22;;;;;;;6.57;3.27;;;5.30;99.90;;;;;;4996413;28;20338;-68
2023/03/29 06:59:48;;;;;;;5.67;3.30;;;5.40;99.90;;;;;;4996219;28;20764;-67
2023/03/29 07:02:14;;;;;;;5.60;3.40;;;5.50;99.90;;;;;;4996577;28;20196;-68
2023/03/29 07:04:40;;;;;;;4.30;2.87;;;5.50;99.90;;;;;;4996495;28;20283;-66
2023/03/29 07:07:10;;;;;;;8.03;4.33;;;5.60;99.90;;;;;;4995981;28;20214;-66
2023/03/29 07:09:38;;;;;;;4.73;3.17;;;5.70;99.90;;;;;;4995923;28;20220;-69
2023/03/29 07:12:04;;;;;;;5.77;3.13;;;5.70;99.90;;;;;;4996265;28;20204;-68
2023/03/29 07:14:29;;;;;;;5.07;3.23;;;5.70;99.90;;;;;;4996417;28;20192;-70
2023/03/29 07:16:55;;;;;;;6.97;3.40;;;5.70;99.90;;;;;;4994009;28;20223;-67
2023/03/29 07:19:23;;;;;;;5.13;2.97;;;5.80;99.90;;;;;;4996696;28;20200;-66
2023/03/29 07:21:49;;;;;;;6.80;3.43;;;5.90;99.90;;;;;;4996692;28;20211;-67
2023/03/29 07:24:14;;;;;;;15.77;9.53;;;6.00;99.80;;;;;;4996314;28;20199;-68
2023/03/29 07:26:40;;;;;;;9.17;3.37;;;6.10;99.90;;;;;;4996092;28;20204;-66
2023/03/29 07:29:06;;;;;;;5.03;2.97;;;6.20;99.20;;;;;;4995566;28;20289;-68
2023/03/29 07:31:34;;;;;;;3.50;2.80;;;6.20;99.40;;;;;;4995913;28;20214;-68
2023/03/29 07:33:59;;;;;;;6.90;3.50;;;6.20;99.40;;;;;;4996045;28;20806;-67
2023/03/29 07:36:27;;;;;;;6.00;3.77;;;6.40;99.40;;;;;;4995659;28;20278;-67
2023/03/29 07:38:52;;;;;;;6.50;2.70;;;6.60;99.20;;;;;;4989564;28;20207;-67
2023/03/29 07:41:18;;;;;;;7.63;3.67;;;6.70;98.50;;;;;;4986231;28;20476;-66
2023/03/29 07:43:43;;;;;;;4.30;2.67;;;6.60;98.50;;;;;;4976638;28;20292;-68
2023/03/29 07:46:10;;;;;;;5.73;3.10;;;6.50;98.10;;;;;;4976719;28;20196;-67
2023/03/29 07:48:38;;;;;;;7.93;2.83;;;6.60;98.30;;;;;;4977265;28;20208;-67
2023/03/29 07:51:05;;;;;;;3.97;2.43;;;6.60;98.20;;;;;;4980833;28;20219;-68
2023/03/29 07:53:31;;;;;;;5.20;2.67;;;6.60;98.20;;;;;;4985056;28;20200;-68
2023/03/29 07:55:56;;;;;;;6.67;2.87;;;6.80;98.20;;;;;;4984321;28;20201;-67
2023/03/29 07:58:22;;;;;;;8.73;3.53;;;6.90;98.10;;;;;;4985721;28;20219;-67
2023/03/29 08:00:48;;;;;;;4.80;3.10;;;6.90;97.90;;;;;;4985604;28;20219;-67
2023/03/29 08:03:14;;;;;;;4.80;3.03;;;6.90;98.00;;;;;;4985483;28;20674;-67
2023/03/29 08:05:39;;;;;;;4.83;2.57;;;7.00;98.00;;;;;;4985010;28;20576;-68
2023/03/29 08:08:05;;;;;;;9.30;3.33;;;7.00;97.90;;;;;;4982998;28;20200;-68
2023/03/29 08:10:33;;;;;;;9.40;3.47;;;7.10;98.10;;;;;;4983256;28;20773;-68
2023/03/29 08:12:59;;;;;;;4.60;2.57;;;7.20;98.00;;;;;;4986611;28;20219;-68
2023/03/29 08:15:25;;;;;;;3.43;3.00;;;7.30;98.10;;;;;;4982382;28;20862;-67
2023/03/29 08:17:51;;;;;;;3.87;2.67;;;7.40;97.90;;;;;;4983616;28;20243;-71
2023/03/29 08:20:16;;;;;;;5.87;3.23;;;7.40;97.70;;;;;;4985881;28;20306;-71
2023/03/29 08:22:42;;;;;;;3.80;2.63;;;7.40;97.70;;;;;;4985616;28;20201;-71
2023/03/29 08:25:08;;;;;;;7.40;3.13;;;7.50;98.00;;;;;;4985778;28;20214;-72
2023/03/29 08:27:34;;;;;;;5.10;2.90;;;7.60;97.90;;;;;;4985854;28;20715;-74
2023/03/29 08:30:00;;;;;;;4.80;2.83;;;7.50;97.90;;;;;;4985661;28;20304;-74
2023/03/29 08:32:25;;;;;;;4.63;2.80;;;7.40;97.90;;;;;;4983550;28;20670;-75
2023/03/29 08:34:51;;;;;;;6.83;3.07;;;7.40;98.30;;;;;;4985463;28;20616;-76
2023/03/29 08:37:16;;;;;;;7.80;3.80;;;7.40;98.20;;;;;;4989186;28;20201;-78
2023/03/29 08:39:42;;;;;;;4.57;2.83;;;7.40;98.30;;;;;;4991671;28;20204;-75
2023/03/29 08:42:28;;;;;;;7.63;3.33;;;7.50;98.00;;;;;;4989517;28;20311;-78
2023/03/29 08:45:08;;;;;;;3.13;2.63;;;7.50;98.00;;;;;;4986913;28;20208;-74
2023/03/29 08:47:52;;;;;;;3.77;2.40;;;7.50;98.30;;;;;;4990252;28;20570;-67
2023/03/29 08:50:19;;;;;;;3.77;2.70;;;7.70;98.20;;;;;;4987002;28;20201;-69
2023/03/29 08:52:51;;;;;;;6.00;3.23;;;7.90;98.40;;;;;;4989051;28;20223;-68
2023/03/29 08:55:27;;;;;;;6.20;3.00;;;8.20;98.10;;;;;;4990169;28;20200;-68
2023/03/29 08:57:54;;;;;;;2.93;2.73;;;8.20;98.20;;;;;;4988416;28;20203;-71
2023/03/29 09:00:27;;;;;;;4.23;2.67;;;8.20;98.20;;;;;;4986896;28;20255;-71
2023/03/29 09:02:56;;;;;;;4.07;2.70;;;8.30;98.20;;;;;;4989240;28;20211;-71
2023/03/29 09:05:33;;;;;;;3.03;2.30;;;8.40;98.20;;;;;;4987648;28;20204;-68
2023/03/29 09:08:00;;;;;;;4.83;2.50;;;8.80;98.50;;;;;;4988389;28;20219;-73
2023/03/29 09:10:36;;;;;;;8.83;2.70;;;9.10;97.60;;;;;;4988530;28;20291;-73
2023/03/29 09:13:41;;;;;;;3.73;3.03;;;9.50;97.30;;;;;;4987210;28;20235;-68
2023/03/29 09:16:25;;;;;;;5.77;3.10;;;9.40;96.90;;;;;;4942547;28;20338;-70
2023/03/29 09:19:20;;;;;;;2.93;2.60;;;9.30;96.90;;;;;;4988191;28;20215;-68
2023/03/29 09:21:56;;;;;;;3.50;2.60;;;9.10;97.20;;;;;;4979560;28;20269;-70
2023/03/29 09:24:36;;;;;;;3.30;3.00;;;9.10;97.40;;;;;;4988509;28;20196;-71
2023/03/29 09:27:09;;;;;;;4.30;2.33;;;9.30;97.30;;;;;;4987682;28;20283;-70
2023/03/29 09:29:57;;;;;;;4.93;2.60;;;9.50;97.10;;;;;;4986587;28;20200;-69
2023/03/29 09:32:33;;;;;;;3.63;2.50;;;9.60;97.00;;;;;;4985924;28;20200;-70
2023/03/29 09:35:17;;;;;;;6.90;2.50;;;9.70;96.80;;;;;;4986233;28;20248;-68
2023/03/29 09:37:44;;;;;;;4.30;2.70;;;9.80;96.90;;;;;;4988799;28;20196;-70
2023/03/29 09:40:16;;;;;;;3.40;3.00;;;9.80;97.00;;;;;;4986704;28;20290;-69
2023/03/29 09:42:43;;;;;;;5.07;2.83;;;9.90;96.80;;;;;;4987788;28;20204;-70
2023/03/29 09:45:09;;;;;;;2.30;2.10;;;10.00;96.30;;;;;;4987941;28;20205;-69
2023/03/29 09:47:48;;;;;;;2.53;2.33;;;10.10;96.20;;;;;;4986806;28;20204;-71
2023/03/29 09:50:20;;;;;;;4.30;2.53;;;9.90;96.40;;;;;;4989108;28;20221;-70
2023/03/29 09:52:46;;;;;;;2.50;2.23;;;10.10;96.00;;;;;;4988165;28;20599;-69
2023/03/29 09:55:14;;;;;;;3.63;2.43;;;10.20;95.90;;;;;;4986584;28;20317;-69
2023/03/29 09:57:42;;;;;;;3.13;2.50;;;10.10;96.50;;;;;;4987738;28;20567;-71
2023/03/29 10:00:09;;;;;;;3.73;2.87;;;10.00;96.20;;;;;;4987940;28;21022;-71
2023/03/29 10:02:35;;;;;;;5.77;4.53;;;9.90;96.90;;;;;;4988081;28;20232;-69
2023/03/29 10:05:05;;;;;;;3.73;2.43;;;10.10;95.90;;;;;;4987701;28;20220;-70
2023/03/29 10:07:45;;;;;;;2.90;2.23;;;9.80;96.60;;;;;;4986549;28;20205;-68
2023/03/29 10:10:20;;;;;;;3.53;2.00;;;9.80;96.80;;;;;;4988662;28;20746;-68
2023/03/29 10:12:53;;;;;;;4.83;2.83;;;9.90;96.80;;;;;;4986543;28;20270;-68
2023/03/29 10:15:19;;;;;;;7.07;2.77;;;10.20;96.00;;;;;;4988008;28;20209;-68
2023/03/29 10:17:45;;;;;;;3.40;2.67;;;10.60;96.00;;;;;;4987016;28;20219;-69
2023/03/29 10:20:18;;;;;;;3.27;2.93;;;10.70;96.10;;;;;;4987405;28;20296;-70
2023/03/29 10:23:05;;;;;;;4.27;3.87;;;11.00;95.60;;;;;;4985358;28;20237;-70
2023/03/29 10:25:35;;;;;;;5.37;2.90;;;11.30;95.30;;;;;;4986870;28;20615;-69
2023/03/29 10:28:10;;;;;;;3.80;2.73;;;11.50;94.70;;;;;;4980687;28;21021;-69
2023/03/29 10:30:37;;;;;;;3.80;2.93;;;11.70;94.40;;;;;;4976499;28;20319;-70
2023/03/29 10:33:05;;;;;;;3.10;2.80;;;11.90;94.20;;;;;;4977180;28;20662;-70
2023/03/29 10:35:40;;;;;;;3.67;2.73;;;11.80;94.10;;;;;;4983941;28;20879;-70
2023/03/29 10:38:22;;;;;;;2.77;2.57;;;11.70;94.30;;;;;;4985473;28;21336;-70
2023/03/29 10:40:51;;;;;;;4.23;2.47;;;11.90;94.10;;;;;;4987001;28;20299;-69
2023/03/29 10:43:28;;;;;;;3.40;2.63;;;11.80;93.80;;;;;;4987535;28;20250;-69
2023/03/29 10:46:03;;;;;;;5.53;2.70;;;11.80;93.60;;;;;;4984539;28;20214;-71
2023/03/29 10:48:30;;;;;;;3.30;2.97;;;11.70;94.00;;;;;;4987177;28;20216;-78
2023/03/29 10:51:00;;;;;;;4.50;2.90;;;11.60;93.80;;;;;;4985135;28;20430;-77
2023/03/29 10:53:31;;;;;;;3.50;2.57;;;11.50;93.60;;;;;;4987072;28;20204;-74
2023/03/29 10:56:30;;;;;;;4.83;3.27;;;11.70;93.40;;;;;;4986191;28;20213;-73
2023/03/29 10:59:15;;;;;;;3.87;2.50;;;11.70;93.20;;;;;;4986148;28;20212;-77
2023/03/29 11:01:43;;;;;;;3.80;2.77;;;11.50;93.30;;;;;;4987194;28;20255;-79
2023/03/29 11:04:33;;;;;;;5.00;2.90;;;11.60;93.20;;;;;;4986574;28;20257;-76
2023/03/29 11:07:25;;;;;;;6.30;3.47;;;11.80;93.30;;;;;;4986009;28;20200;-78
2023/03/29 11:10:19;;;;;;;4.03;2.87;;;12.10;93.50;;;;;;4986377;28;20625;-82
2023/03/29 11:13:07;;;;;;;2.63;2.07;;;12.10;92.80;;;;;;4985977;28;20206;-81
2023/03/29 11:15:51;;;;;;;3.07;2.70;;;12.40;92.50;;;;;;4986358;28;20202;-75
2023/03/29 11:18:58;;;;;;;4.17;2.93;;;12.80;92.50;;;;;;4986223;28;20196;-75
2023/03/29 11:21:32;;;;;;;5.03;2.17;;;12.60;91.80;;;;;;4985294;28;20293;-71
2023/03/29 11:24:48;;;;;;;3.00;2.70;;;12.40;92.00;;;;;;4984214;28;20236;-72
2023/03/29 11:27:28;;;;;;;2.60;2.30;;;12.20;92.00;;;;;;4986113;28;20211;-74
2023/03/29 11:30:29;;;;;;;4.57;2.47;;;12.30;91.70;;;;;;4985533;28;20216;-75
2023/03/29 11:33:15;;;;;;;3.67;2.60;;;12.10;91.70;;;;;;4976788;28;20221;-74
2023/03/29 11:36:08;;;;;;;3.07;2.57;;;12.40;91.60;;;;;;4976737;28;20694;-73
2023/03/29 11:38:40;;;;;;;2.90;2.67;;;12.20;91.80;;;;;;4974785;28;20207;-75
2023/03/29 11:41:22;;;;;;;3.70;2.93;;;12.20;92.20;;;;;;4983512;28;20686;-73
2023/03/29 11:43:55;;;;;;;2.73;2.50;;;12.30;92.20;;;;;;4984334;28;20206;-73
2023/03/29 11:46:30;;;;;;;3.17;2.63;;;12.40;91.50;;;;;;4986181;28;20497;-74
2023/03/29 11:49:10;;;;;;;2.93;2.70;;;12.50;91.80;;;;;;4984091;28;20241;-73
2023/03/29 11:51:44;;;;;;;3.47;3.07;;;12.70;91.20;;;;;;4976622;28;20682;-73
2023/03/29 11:54:20;;;;;;;2.70;2.50;;;12.80;90.30;;;;;;4976313;28;20200;-71
2023/03/29 11:56:56;;;;;;;3.03;2.50;;;12.60;90.80;;;;;;4976491;28;20262;-71
2023/03/29 11:59:38;;;;;;;3.40;2.60;;;12.80;90.50;;;;;;4977192;28;20251;-70
2023/03/29 12:02:15;;;;;;;3.20;2.87;;;12.90;90.20;;;;;;4976803;28;20220;-71
2023/03/29 12:05:02;;;;;;;2.53;2.33;;;13.10;90.60;;;;;;4974565;28;20554;-75
2023/03/29 12:07:35;;;;;;;3.63;2.87;;;13.20;88.60;;;;;;4976652;28;20208;-75
2023/03/29 12:10:17;;;;;;;4.23;2.50;;;13.00;86.70;;;;;;4977037;28;20266;-75
2023/03/29 12:13:04;;;;;;;5.50;2.20;;;13.30;87.10;;;;;;4979970;28;20273;-74
2023/03/29 12:15:35;;;;;;;4.40;2.53;;;13.20;86.80;;;;;;4980454;28;20213;-77
2023/03/29 12:18:16;;;;;;;4.27;2.60;;;12.70;87.40;;;;;;4978795;28;20205;-75
2023/03/29 12:20:43;;;;;;;4.73;2.60;;;12.60;88.30;;;;;;4979634;28;20214;-72
2023/03/29 12:23:13;;;;;;;2.80;2.60;;;12.50;88.50;;;;;;4992733;28;20268;-73
2023/03/29 12:26:01;;;;;;;3.53;3.03;;;12.30;88.80;;;;;;4990376;28;20670;-73
2023/03/29 12:29:06;;;;;;;2.20;2.00;;;12.30;89.40;;;;;;4988044;28;20640;-74
2023/03/29 12:31:55;;;;;;;4.80;2.93;;;12.20;89.60;;;;;;4989718;28;20326;-75
2023/03/29 12:34:41;;;;;;;3.37;2.77;;;12.20;89.50;;;;;;4988000;28;20235;-79
2023/03/29 12:37:45;;;;;;;3.93;2.47;;;11.90;90.00;;;;;;4986445;28;20201;-74
2023/03/29 12:40:19;;;;;;;3.77;2.40;;;11.60;90.10;;;;;;4987001;28;20199;-76
2023/03/29 12:43:13;;;;;;;3.70;2.70;;;11.50;90.20;;;;;;4989803;28;20287;-79
2023/03/29 12:45:46;;;;;;;5.10;2.87;;;11.40;90.50;;;;;;4958286;28;20220;-76
2023/03/29 12:48:17;;;;;;;2.53;2.33;;;11.50;90.60;;;;;;4986076;28;20288;-73
2023/03/29 12:51:00;;;;;;;5.33;2.40;;;11.30;90.60;;;;;;4989251;28;20215;-74
2023/03/29 12:53:38;;;;;;;2.53;2.33;;;11.40;90.90;;;;;;4986644;28;20197;-72
2023/03/29 12:56:11;;;;;;;5.77;2.40;;;11.70;90.20;;;;;;4988723;28;20682;-72
2023/03/29 12:58:47;;;;;;;3.70;2.57;;;11.50;89.10;;;;;;4987123;28;20203;-72
2023/03/29 13:01:30;;;;;;;3.80;2.47;;;11.50;89.70;;;;;;4987421;28;20245;-72
2023/03/29 13:03:59;;;;;;;2.90;2.63;;;11.60;90.00;;;;;;4997565;28;20268;-73
2023/03/29 13:06:31;;;;;;;4.37;2.80;;;11.90;89.70;;;;;;4998458;28;20508;-73
2023/03/29 13:08:59;;;;;;;5.20;2.77;;;12.10;89.00;;;;;;4997979;28;20233;-74
2023/03/29 13:11:33;;;;;;;2.57;2.03;;;12.30;88.90;;;;;;4979924;28;20569;-74
2023/03/29 13:14:02;;;;;;;3.00;1.97;;;12.60;87.70;;;;;;4998028;28;20218;-73
2023/03/29 13:16:33;;;;;;;2.50;2.17;;;12.30;87.70;;;;;;4998142;28;20189;-73